Time;durP1;ratioP1;P1;durP2;ratioP2;P2;SDS_P1;SDS_P2;PMS_P1;PMS_P2;Temp;Humidity;BMP_temperature;BMP_pressure;BME280_temperature;BME280_humidity;BME280_pressure;Samples;Min_cycle;Max_cycle;Signal;HPM_P1;HPM_P2
2023/06/16 00:01:03;;;;;;;10.20;8.77;;;;;;;;;;5075578;28;20099;-64
2023/06/16 00:03:33;;;;;;;11.73;8.98;;;;;;;;;;5075078;28;20017;-63
2023/06/16 00:06:03;;;;;;;10.13;9.05;;;;;;;;;;5075229;28;20044;-65
2023/06/16 00:08:30;;;;;;;8.65;7.63;;;;;;;;;;5074836;28;20118;-65
2023/06/16 00:10:56;;;;;;;10.55;9.15;;;;;;;;;;5074947;28;20566;-64
2023/06/16 00:13:22;;;;;;;9.95;8.70;;;;;;;;;;5075383;28;20020;-64
2023/06/16 00:15:48;;;;;;;11.48;8.02;;;;;;;;;;5075414;28;20016;-65
2023/06/16 00:18:14;;;;;;;11.45;8.02;;;;;;;;;;5074786;28;20021;-65
2023/06/16 00:20:41;;;;;;;9.65;8.13;;;;;;;;;;5072362;28;20029;-65
2023/06/16 00:23:09;;;;;;;9.90;8.23;;;;;;;;;;5071316;28;20048;-65
2023/06/16 00:25:35;;;;;;;10.40;8.55;;;435.40;1971.20;;;;;;5071753;28;20028;-65
2023/06/16 00:28:01;;;;;;;9.00;7.70;;;435.20;2355.20;;;;;;5072247;28;20024;-65
2023/06/16 00:30:26;;;;;;;9.95;7.40;;;435.20;2355.20;;;;;;5071400;28;20037;-64
2023/06/16 00:32:52;;;;;;;9.40;8.40;;;410.50;2355.20;;;;;;5071802;28;20023;-64
2023/06/16 00:35:17;;;;;;;11.07;8.68;;;410.50;2355.20;;;;;;5071373;28;20095;-66
2023/06/16 00:37:43;;;;;;;9.60;7.60;;;410.40;2355.20;;;;;;5071107;28;20044;-67
2023/06/16 00:40:09;;;;;;;8.70;7.60;;;410.40;2355.20;;;;;;5072039;28;20463;-65
2023/06/16 00:42:35;;;;;;;9.38;7.75;;;410.50;2355.20;;;;;;5070968;28;20027;-64
2023/06/16 00:45:01;;;;;;;10.35;7.45;;;;;;;;;;5071838;28;20024;-65
2023/06/16 00:47:27;;;;;;;7.57;6.78;;;;;;;;;;5071452;28;20103;-65
2023/06/16 00:49:53;;;;;;;7.82;6.85;;;;;;;;;;5071477;28;20036;-65
2023/06/16 00:52:20;;;;;;;8.85;7.20;;;;;;;;;;5070658;28;20017;-65
2023/06/16 00:54:46;;;;;;;8.60;7.15;;;;;;;;;;5071219;28;20069;-64
2023/06/16 00:57:13;;;;;;;7.82;7.03;;;;;;;;;;5071360;28;20749;-65
2023/06/16 00:59:39;;;;;;;7.97;7.18;;;;;;;;;;5071645;28;20029;-65
2023/06/16 01:02:06;;;;;;;10.10;7.65;;;;;;;;;;5071087;28;20012;-66
2023/06/16 01:04:32;;;;;;;8.68;6.88;;;;;;;;;;5071230;28;20054;-64
2023/06/16 01:07:12;;;;;;;7.88;6.53;;;;;;;;;;5071024;28;20082;-65
2023/06/16 01:09:56;;;;;;;8.13;6.00;;;;;;;;;;5070994;28;20535;-65
2023/06/16 01:12:34;;;;;;;9.00;6.70;;;;;;;;;;5059424;28;20020;-64
2023/06/16 01:15:09;;;;;;;7.82;6.60;;;;;;;;;;5070610;28;20111;-64
2023/06/16 01:17:46;;;;;;;9.10;5.78;;;;;;;;;;5070761;28;20100;-66
2023/06/16 01:20:18;;;;;;;7.32;6.07;;;;;;;;;;5054601;28;20025;-65
2023/06/16 01:23:03;;;;;;;6.47;5.88;;;;;;;;;;5050592;28;20063;-64
2023/06/16 01:25:31;;;;;;;6.47;5.20;;;;;;;;;;5067989;28;20067;-64
2023/06/16 01:27:57;;;;;;;8.73;6.25;;;;;;;;;;5070357;28;20024;-67
2023/06/16 01:30:25;;;;;;;6.07;5.00;;;;;;;;;;5069680;28;20033;-64
2023/06/16 01:32:56;;;;;;;6.70;5.30;;;;;;;;;;5070529;28;20378;-63
2023/06/16 01:35:23;;;;;;;6.07;4.88;;;;;;;;;;5070083;28;20028;-65
2023/06/16 01:37:51;;;;;;;6.75;5.65;;;410.50;2304.00;;;;;;5070157;28;20040;-64
2023/06/16 01:40:18;;;;;;;6.32;4.85;;;410.40;2355.20;;;;;;5070411;28;20059;-64
2023/06/16 01:42:46;;;;;;;6.60;5.43;;;410.30;2355.20;;;;;;5069831;28;20101;-67
2023/06/16 01:45:14;;;;;;;6.95;5.03;;;;;;;;;;5070214;28;20020;-65
2023/06/16 01:47:40;;;;;;;6.80;4.75;;;;;;;;;;5070420;28;20035;-67
2023/06/16 01:50:07;;;;;;;5.57;4.57;;;;;;;;;;5069850;28;20037;-67
2023/06/16 01:52:33;;;;;;;6.32;5.25;;;;;;;;;;5069775;28;20032;-67
2023/06/16 01:54:59;;;;;;;5.78;3.90;;;;;;;;;;5070301;28;20025;-62
2023/06/16 01:57:26;;;;;;;4.93;3.70;;;410.10;2355.20;;;;;;5069447;28;20588;-66
2023/06/16 02:00:02;;;;;;;5.05;4.15;;;410.00;2355.20;;;;;;5069943;28;20107;-64
2023/06/16 02:02:29;;;;;;;5.15;4.10;;;409.90;2355.20;;;;;;5069920;28;20028;-64
2023/06/16 02:04:55;;;;;;;6.82;4.32;;;409.90;2355.20;;;;;;5069344;28;20029;-65
2023/06/16 02:07:30;;;;;;;4.80;3.92;;;409.90;2355.20;;;;;;5069641;28;20489;-66
2023/06/16 02:10:00;;;;;;;6.20;4.20;;;409.90;2355.20;;;;;;5069449;28;20047;-64
2023/06/16 02:12:26;;;;;;;8.73;3.80;;;410.00;2355.20;;;;;;5069422;28;20549;-63
2023/06/16 02:14:52;;;;;;;5.22;4.07;;;409.90;2355.20;;;;;;5066438;28;20399;-64
2023/06/16 02:17:19;;;;;;;5.22;3.90;;;409.90;2355.20;;;;;;5049998;28;20028;-63
2023/06/16 02:19:44;;;;;;;4.72;3.95;;;409.90;2355.20;;;;;;5049620;28;20475;-63
2023/06/16 02:22:10;;;;;;;5.13;3.88;;;409.90;2355.20;;;;;;5049417;28;20087;-65
2023/06/16 02:24:36;;;;;;;4.22;3.65;;;409.90;2355.20;;;;;;5066467;28;20024;-65
2023/06/16 02:27:03;;;;;;;5.13;4.35;;;410.00;2355.20;;;;;;5069520;28;20021;-64
2023/06/16 02:29:29;;;;;;;4.43;3.63;;;410.00;2355.20;;;;;;5069243;28;20020;-63
2023/06/16 02:31:55;;;;;;;5.63;4.35;;;410.00;2355.20;;;;;;5069296;28;20405;-64
2023/06/16 02:34:21;;;;;;;4.35;3.63;;;409.90;2355.20;;;;;;5050689;28;20021;-66
2023/06/16 02:36:47;;;;;;;4.75;3.20;;;409.90;2355.20;;;;;;5060988;28;20123;-64
2023/06/16 02:39:17;;;;;;;4.70;3.33;;;409.90;2355.20;;;;;;5069296;28;20048;-64
2023/06/16 02:41:44;;;;;;;5.85;4.03;;;409.90;2355.20;;;;;;5069156;28;20028;-65
2023/06/16 02:44:10;;;;;;;5.43;4.00;;;409.90;2355.20;;;;;;5068740;28;20104;-63
2023/06/16 02:46:36;;;;;;;3.90;3.50;;;409.90;2355.20;;;;;;5069024;28;20032;-63
2023/06/16 02:49:01;;;;;;;4.65;3.53;;;409.90;2355.20;;;;;;5069629;28;20025;-64
2023/06/16 02:51:27;;;;;;;6.85;4.10;;;410.00;2355.20;;;;;;5068847;28;20036;-65
2023/06/16 02:53:53;;;;;;;5.30;3.97;;;409.90;2355.20;;;;;;5068793;28;20021;-64
2023/06/16 02:56:20;;;;;;;5.30;4.07;;;409.90;2355.20;;;;;;5069566;28;20067;-64
2023/06/16 02:58:47;;;;;;;5.53;4.57;;;409.90;2355.20;;;;;;5055774;28;20025;-63
2023/06/16 03:01:14;;;;;;;5.70;4.45;;;409.90;2355.20;;;;;;5069314;28;20833;-63
2023/06/16 03:03:40;;;;;;;5.15;4.40;;;409.90;2355.20;;;;;;5068807;28;20028;-64
2023/06/16 03:06:07;;;;;;;7.53;5.32;;;409.80;2355.20;;;;;;5068820;28;20032;-65
2023/06/16 03:08:33;;;;;;;7.88;5.32;;;409.80;2355.20;;;;;;5068746;28;20021;-63
2023/06/16 03:10:58;;;;;;;6.35;5.55;;;409.80;2355.20;;;;;;5068958;28;20032;-64
2023/06/16 03:13:24;;;;;;;6.88;5.82;;;409.80;2355.20;;;;;;5069031;28;20482;-66
2023/06/16 03:15:52;;;;;;;7.35;5.90;;;409.90;2355.20;;;;;;5069070;28;20471;-64
2023/06/16 03:18:18;;;;;;;7.57;6.63;;;409.90;2355.20;;;;;;5069375;28;20348;-62
2023/06/16 03:20:45;;;;;;;9.10;8.10;;;409.90;2355.20;;;;;;5069038;28;20036;-63
2023/06/16 03:23:12;;;;;;;9.70;7.75;;;409.90;2355.20;;;;;;5068612;28;20477;-64
2023/06/16 03:25:38;;;;;;;8.50;7.60;;;409.90;2355.20;;;;;;5068590;28;20115;-67
2023/06/16 03:28:07;;;;;;;8.93;7.70;;;409.90;2355.20;;;;;;5068745;28;20012;-63
2023/06/16 03:30:33;;;;;;;7.47;6.65;;;409.90;2355.20;;;;;;5068860;28;20095;-62
2023/06/16 03:32:58;;;;;;;9.13;7.25;;;409.90;2355.20;;;;;;5068923;28;20382;-63
2023/06/16 03:35:24;;;;;;;8.77;7.18;;;409.90;2355.20;;;;;;5068460;28;20032;-63
2023/06/16 03:37:51;;;;;;;7.68;6.82;;;409.90;2355.20;;;;;;5068483;28;20094;-64
2023/06/16 03:40:17;;;;;;;7.85;6.93;;;409.90;2355.20;;;;;;5068759;28;20462;-62
2023/06/16 03:42:43;;;;;;;8.65;7.70;;;409.90;2355.20;;;;;;5068690;28;20029;-63
2023/06/16 03:45:10;;;;;;;8.18;6.68;;;409.90;2355.20;;;;;;5068663;28;20032;-62
2023/06/16 03:47:35;;;;;;;7.18;6.45;;;409.90;2355.20;;;;;;5068728;28;20013;-61
2023/06/16 03:50:02;;;;;;;8.35;7.10;;;409.90;2355.20;;;;;;5068786;28;20478;-61
2023/06/16 03:52:28;;;;;;;7.95;7.10;;;410.00;2355.20;;;;;;5068577;28;20013;-62
2023/06/16 03:54:54;;;;;;;7.63;6.65;;;409.90;2355.20;;;;;;5070682;28;20383;-65
2023/06/16 03:57:20;;;;;;;9.63;8.35;;;410.00;2355.20;;;;;;5072165;28;20012;-62
2023/06/16 03:59:45;;;;;;;10.68;7.78;;;409.90;2355.20;;;;;;5072387;28;20021;-62
2023/06/16 04:02:11;;;;;;;10.07;8.10;;;409.90;2355.20;;;;;;5072669;28;20092;-62
2023/06/16 04:04:37;;;;;;;8.48;7.53;;;409.90;2355.20;;;;;;5071976;28;20024;-64
2023/06/16 04:07:05;;;;;;;8.68;7.68;;;409.90;2355.20;;;;;;5071605;28;20536;-63
2023/06/16 04:09:31;;;;;;;10.27;8.95;;;409.80;2355.20;;;;;;5072277;28;20025;-62
2023/06/16 04:11:57;;;;;;;10.32;8.70;;;409.80;2355.20;;;;;;5071617;28;20081;-63
2023/06/16 04:14:23;;;;;;;9.70;8.40;;;409.80;2355.20;;;;;;5071759;28;20024;-63
2023/06/16 04:16:49;;;;;;;9.35;8.00;;;409.80;2355.20;;;;;;5071936;28;20074;-63
2023/06/16 04:19:17;;;;;;;9.77;8.77;;;409.80;2355.20;;;;;;5071849;28;20048;-62
2023/06/16 04:21:43;;;;;;;9.80;8.55;;;409.80;2355.20;;;;;;5071634;28;20040;-63
2023/06/16 04:24:10;;;;;;;10.57;9.38;;;409.80;2355.20;;;;;;5071923;28;20471;-63
2023/06/16 04:26:37;;;;;;;10.68;9.57;;;409.80;2355.20;;;;;;5071387;28;20024;-67
2023/06/16 04:29:05;;;;;;;10.85;9.52;;;409.80;2355.20;;;;;;5071702;28;20021;-64
2023/06/16 04:31:35;;;;;;;13.40;10.15;;;409.80;2355.20;;;;;;5071841;28;20488;-63
2023/06/16 04:34:03;;;;;;;12.05;10.63;;;409.80;2201.60;;;;;;5071918;28;20021;-63
2023/06/16 04:36:30;;;;;;;11.45;9.98;;;409.70;2355.20;;;;;;5072092;28;20484;-64
2023/06/16 04:38:56;;;;;;;13.00;10.77;;;409.70;2355.20;;;;;;5071118;28;20202;-66
2023/06/16 04:41:23;;;;;;;13.23;11.63;;;409.70;2355.20;;;;;;5071294;28;20463;-63
2023/06/16 04:43:48;;;;;;;14.75;12.38;;;409.70;2355.20;;;;;;5071699;28;20029;-64
2023/06/16 04:46:14;;;;;;;14.60;11.43;;;409.60;2355.20;;;;;;5070715;28;20052;-66
2023/06/16 04:48:40;;;;;;;13.75;12.07;;;409.60;2355.20;;;;;;5071263;28;20025;-63
2023/06/16 04:51:06;;;;;;;15.25;11.85;;;409.70;2355.20;;;;;;5071175;28;20078;-64
2023/06/16 04:53:31;;;;;;;11.95;10.45;;;409.70;2355.20;;;;;;5071200;28;20017;-63
2023/06/16 04:55:57;;;;;;;14.45;12.05;;;409.60;2355.20;;;;;;5071186;28;20028;-66
2023/06/16 04:58:23;;;;;;;13.55;12.07;;;409.80;2355.20;;;;;;5070748;28;20458;-64
2023/06/16 05:00:50;;;;;;;17.95;12.73;;;409.80;2355.20;;;;;;5071572;28;20458;-62
2023/06/16 05:03:16;;;;;;;14.45;12.95;;;409.70;2355.20;;;;;;5070784;28;20505;-62
2023/06/16 05:05:43;;;;;;;15.35;11.75;;;409.70;2355.20;;;;;;5069505;28;20024;-63
2023/06/16 05:08:09;;;;;;;16.20;12.98;;;409.80;2355.20;;;;;;5070875;28;20036;-62
2023/06/16 05:10:35;;;;;;;13.50;10.90;;;409.80;2355.20;;;;;;5070772;28;20387;-62
2023/06/16 05:13:01;;;;;;;12.75;11.00;;;409.80;2355.20;;;;;;5071223;28;20021;-63
2023/06/16 05:15:27;;;;;;;16.23;11.70;;;409.80;2355.20;;;;;;5070734;28;20036;-62
2023/06/16 05:17:53;;;;;;;15.50;12.00;;;409.90;2355.20;;;;;;5070975;28;20025;-63
2023/06/16 05:20:18;;;;;;;14.40;11.75;;;409.90;2355.20;;;;;;5070478;28;20044;-63
2023/06/16 05:22:44;;;;;;;12.82;11.18;;;409.90;2355.20;;;;;;5070375;28;20509;-63
2023/06/16 05:25:10;;;;;;;15.75;12.85;;;409.90;2355.20;;;;;;5070898;28;20067;-63
2023/06/16 05:27:36;;;;;;;13.20;11.35;;;409.90;2355.20;;;;;;5070215;28;20189;-63
2023/06/16 05:30:01;;;;;;;16.52;12.80;;;410.00;2355.20;;;;;;5070651;28;20697;-62
2023/06/16 05:32:27;;;;;;;13.93;12.43;;;410.00;2355.20;;;;;;5070265;28;20028;-63
2023/06/16 05:34:53;;;;;;;16.67;13.20;;;410.00;2355.20;;;;;;5070303;28;20060;-62
2023/06/16 05:37:20;;;;;;;20.38;13.23;;;410.10;2355.20;;;;;;5070213;28;20128;-62
2023/06/16 05:39:47;;;;;;;15.32;13.48;;;410.10;2355.20;;;;;;5070113;28;20017;-64
2023/06/16 05:42:14;;;;;;;15.02;12.65;;;410.10;2355.20;;;;;;5070600;28;20020;-63
2023/06/16 05:44:42;;;;;;;16.27;12.93;;;410.00;2355.20;;;;;;5069998;28;20494;-62
2023/06/16 05:47:08;;;;;;;15.30;12.77;;;409.90;2355.20;;;;;;5070200;28;20025;-62
2023/06/16 05:49:34;;;;;;;13.13;11.07;;;410.00;2355.20;;;;;;5070168;28;20052;-63
2023/06/16 05:52:02;;;;;;;16.63;12.18;;;410.10;2355.20;;;;;;5070255;28;20068;-61
2023/06/16 05:54:28;;;;;;;15.93;12.73;;;410.20;2355.20;;;;;;5069818;28;20013;-62
2023/06/16 05:56:58;;;;;;;14.07;12.57;;;410.20;2355.20;;;;;;5069885;28;20103;-62
2023/06/16 05:59:25;;;;;;;15.68;12.40;;;410.20;2355.20;;;;;;5056779;28;20085;-64
2023/06/16 06:01:51;;;;;;;16.58;12.23;;;410.20;2329.60;;;;;;5070253;28;20020;-64
2023/06/16 06:04:26;;;;;;;16.00;11.63;;;410.20;2355.20;;;;;;5069713;28;20471;-64
2023/06/16 06:06:51;;;;;;;14.30;11.85;;;410.20;2355.20;;;;;;5069543;28;20033;-63
2023/06/16 06:09:17;;;;;;;13.60;11.45;;;410.20;2355.20;;;;;;5070027;28;20070;-63
2023/06/16 06:11:42;;;;;;;13.60;12.20;;;410.20;2355.20;;;;;;5069775;28;20038;-63
2023/06/16 06:14:08;;;;;;;15.98;11.43;;;410.20;2355.20;;;;;;5069688;28;20472;-63
2023/06/16 06:16:34;;;;;;;12.95;10.32;;;410.20;2329.60;;;;;;5068856;28;20052;-66
2023/06/16 06:19:00;;;;;;;12.80;11.27;;;410.20;2355.20;;;;;;5069582;28;20036;-71
2023/06/16 06:21:25;;;;;;;11.85;10.60;;;410.20;2048.00;;;;;;5069154;28;20031;-66
2023/06/16 06:23:51;;;;;;;12.25;10.27;;;410.20;2355.20;;;;;;5069376;28;20024;-71
2023/06/16 06:26:17;;;;;;;11.43;10.27;;;410.20;2355.20;;;;;;5068719;28;20028;-73
2023/06/16 06:28:43;;;;;;;11.90;9.70;;;410.20;2329.60;;;;;;5066165;28;20040;-67
2023/06/16 06:31:09;;;;;;;16.55;14.80;;;410.20;2355.20;;;;;;5061088;28;20033;-69
2023/06/16 06:33:34;;;;;;;13.50;10.50;;;410.30;2355.20;;;;;;5049106;28;20021;-65
2023/06/16 06:36:00;;;;;;;11.50;9.95;;;410.20;2304.00;;;;;;5058330;28;20115;-70
2023/06/16 06:38:26;;;;;;;14.45;13.15;;;410.20;2355.20;;;;;;5066285;28;20048;-71
2023/06/16 06:40:51;;;;;;;12.48;10.60;;;410.20;2355.20;;;;;;5069093;28;20032;-67
2023/06/16 06:43:17;;;;;;;12.45;11.15;;;410.20;2355.20;;;;;;5068509;28;20513;-73
2023/06/16 06:45:45;;;;;;;14.77;13.40;;;410.20;2355.20;;;;;;5068517;28;20496;-73
2023/06/16 06:48:11;;;;;;;15.60;12.40;;;410.10;2355.20;;;;;;5068156;28;20029;-71
2023/06/16 06:50:36;;;;;;;15.40;13.80;;;410.10;2355.20;;;;;;5067810;28;20047;-70
2023/06/16 06:53:02;;;;;;;13.98;12.52;;;410.10;2355.20;;;;;;5068719;28;20024;-70
2023/06/16 06:55:28;;;;;;;11.48;10.27;;;410.10;2304.00;;;;;;5068083;28;20039;-74
2023/06/16 06:57:53;;;;;;;10.95;9.35;;;410.10;2355.20;;;;;;5068998;28;20116;-69
2023/06/16 07:00:19;;;;;;;12.82;10.50;;;410.10;2022.40;;;;;;5068453;28;20033;-72
2023/06/16 07:02:45;;;;;;;12.57;10.95;;;410.20;2355.20;;;;;;5067999;28;20055;-72
2023/06/16 07:05:11;;;;;;;15.27;11.43;;;410.20;2355.20;;;;;;5059227;28;20029;-64
2023/06/16 07:07:37;;;;;;;13.95;11.50;;;410.20;2355.20;;;;;;5048614;28;20025;-63
2023/06/16 07:10:03;;;;;;;12.32;10.60;;;410.20;2355.20;;;;;;5049508;28;20027;-62
2023/06/16 07:12:29;;;;;;;11.68;10.18;;;410.30;2355.20;;;;;;5063371;28;20090;-63
2023/06/16 07:14:55;;;;;;;13.00;9.95;;;410.30;2355.20;;;;;;5068578;28;20017;-63
2023/06/16 07:17:20;;;;;;;15.35;10.75;;;410.30;2355.20;;;;;;5069381;28;20047;-64
2023/06/16 07:19:46;;;;;;;13.50;10.20;;;410.30;2355.20;;;;;;5069171;28;20017;-64
2023/06/16 07:22:12;;;;;;;13.75;10.00;;;410.50;2355.20;;;;;;5068920;28;20033;-63
2023/06/16 07:24:37;;;;;;;13.07;11.27;;;410.50;2355.20;;;;;;5068469;28;20028;-63
2023/06/16 07:27:04;;;;;;;13.63;10.70;;;410.40;2355.20;;;;;;5068135;28;20086;-64
2023/06/16 07:29:30;;;;;;;19.88;12.13;;;410.50;2355.20;;;;;;5069934;28;20820;-63
2023/06/16 07:31:55;;;;;;;13.68;11.85;;;410.50;2355.20;;;;;;5070231;28;20509;-65
2023/06/16 07:34:21;;;;;;;16.77;11.60;;;410.40;2355.20;;;;;;5071559;28;20036;-65
2023/06/16 07:36:47;;;;;;;14.13;11.45;;;410.50;2355.20;;;;;;5070597;28;20079;-65
2023/06/16 07:39:12;;;;;;;14.60;12.25;;;410.50;2355.20;;;;;;5070281;28;20040;-63
2023/06/16 07:41:38;;;;;;;14.20;10.65;;;410.50;2355.20;;;;;;5070947;28;20028;-64
2023/06/16 07:44:05;;;;;;;14.05;12.27;;;435.20;2355.20;;;;;;5070019;28;20032;-64
2023/06/16 07:46:32;;;;;;;16.02;11.65;;;435.20;2355.20;;;;;;5071084;28;20082;-64
2023/06/16 07:48:58;;;;;;;15.32;12.40;;;435.20;2355.20;;;;;;5070456;28;20029;-65
2023/06/16 07:51:23;;;;;;;15.20;12.02;;;435.20;2355.20;;;;;;5071015;28;20042;-64
2023/06/16 07:53:49;;;;;;;15.00;13.32;;;435.20;2355.20;;;;;;5070759;28;20025;-64
2023/06/16 07:56:16;;;;;;;15.45;12.27;;;410.50;2355.20;;;;;;5070170;28;20060;-64
2023/06/16 07:58:42;;;;;;;14.07;12.00;;;435.20;2355.20;;;;;;5070922;28;20104;-63
2023/06/16 08:01:07;;;;;;;15.07;13.48;;;410.50;2355.20;;;;;;5070223;28;20119;-63
2023/06/16 08:03:33;;;;;;;16.33;14.63;;;410.50;2355.20;;;;;;5070550;28;20095;-64
2023/06/16 08:05:59;;;;;;;15.95;12.90;;;435.20;2355.20;;;;;;5071230;28;20040;-63
2023/06/16 08:08:28;;;;;;;14.70;12.70;;;435.30;2355.20;;;;;;5070157;28;20523;-64
2023/06/16 08:10:57;;;;;;;12.98;11.02;;;435.40;2355.20;;;;;;5069650;28;20081;-65
2023/06/16 08:13:26;;;;;;;15.93;12.45;;;435.40;2355.20;;;;;;5069930;28;20538;-64
2023/06/16 08:15:52;;;;;;;15.18;12.85;;;435.30;2355.20;;;;;;5070555;28;20510;-63
2023/06/16 08:18:19;;;;;;;14.52;11.63;;;435.30;2355.20;;;;;;5070651;28;20035;-65
2023/06/16 08:20:45;;;;;;;14.23;11.88;;;435.30;2355.20;;;;;;5070485;28;20099;-65
2023/06/16 08:23:11;;;;;;;14.23;12.20;;;435.40;2355.20;;;;;;5071770;28;20466;-64
2023/06/16 08:25:37;;;;;;;14.15;12.13;;;435.50;2355.20;;;;;;5071880;28;20024;-64
2023/06/16 08:28:05;;;;;;;19.98;17.30;;;435.40;2355.20;;;;;;5072059;28;20108;-64
2023/06/16 08:30:31;;;;;;;15.73;12.85;;;435.50;2355.20;;;;;;5071843;28;20040;-64
2023/06/16 08:32:56;;;;;;;14.82;12.60;;;435.50;2355.20;;;;;;5071594;28;20024;-64
2023/06/16 08:35:22;;;;;;;17.23;12.32;;;435.40;2355.20;;;;;;5071770;28;20028;-66
2023/06/16 08:37:48;;;;;;;16.13;13.40;;;435.40;2355.20;;;;;;5071177;28;20120;-65
2023/06/16 08:40:14;;;;;;;16.23;13.10;;;435.40;2355.20;;;;;;5070486;28;20071;-65
2023/06/16 08:42:41;;;;;;;14.80;13.30;;;435.30;2355.20;;;;;;5071496;28;20013;-66
2023/06/16 08:45:08;;;;;;;14.52;12.80;;;435.30;2355.20;;;;;;5071504;28;20383;-65
2023/06/16 08:47:35;;;;;;;59.35;54.17;;;435.30;2355.20;;;;;;5066193;28;20013;-63
2023/06/16 08:50:00;;;;;;;17.63;14.00;;;435.50;2355.20;;;;;;5051715;28;20391;-62
2023/06/16 08:52:28;;;;;;;12.68;11.48;;;435.50;2355.20;;;;;;5051520;28;20031;-63
2023/06/16 08:55:01;;;;;;;24.92;22.60;;;435.50;2355.20;;;;;;5051331;28;20104;-63
2023/06/16 08:57:30;;;;;;;14.73;11.77;;;435.60;2355.20;;;;;;5058109;28;20489;-63
2023/06/16 08:59:58;;;;;;;13.40;11.68;;;435.60;2355.20;;;;;;5069721;28;20185;-62
2023/06/16 09:02:29;;;;;;;13.60;11.00;;;435.70;2355.20;;;;;;5068909;28;20020;-63
2023/06/16 09:04:56;;;;;;;12.32;9.65;;;435.80;2355.20;;;;;;5069605;28;20056;-63
2023/06/16 09:07:27;;;;;;;15.27;12.80;;;435.80;2355.20;;;;;;5051714;28;20040;-62
2023/06/16 09:09:55;;;;;;;15.13;10.73;;;435.70;2355.20;;;;;;5069866;28;20367;-62
2023/06/16 09:12:21;;;;;;;14.30;11.02;;;435.80;2355.20;;;;;;5069632;28;20029;-63
2023/06/16 09:14:49;;;;;;;13.23;11.85;;;435.90;2355.20;;;;;;5068938;28;20035;-73
2023/06/16 09:17:21;;;;;;;16.92;14.65;;;435.90;2355.20;;;;;;5069443;28;20029;-74
2023/06/16 09:19:47;;;;;;;18.88;16.98;;;435.70;2355.20;;;;;;5069341;28;20023;-73
2023/06/16 09:22:25;;;;;;;13.80;12.00;;;435.70;2355.20;;;;;;5069398;28;20033;-74
2023/06/16 09:24:55;;;;;;;17.75;14.18;;;435.70;2355.20;;;;;;5069086;28;20089;-74
2023/06/16 09:27:23;;;;;;;17.60;15.13;;;435.90;2355.20;;;;;;5068358;28;20359;-71
2023/06/16 09:29:57;;;;;;;16.10;14.38;;;435.60;2355.20;;;;;;5069177;28;20075;-75
2023/06/16 09:32:23;;;;;;;17.05;13.45;;;435.70;2355.20;;;;;;5069276;28;20069;-69
2023/06/16 09:34:48;;;;;;;12.63;11.27;;;435.80;2355.20;;;;;;5069176;28;20029;-74
2023/06/16 09:37:19;;;;;;;68.05;46.55;;;435.90;2355.20;;;;;;5068549;28;20137;-65
2023/06/16 09:39:46;;;;;;;13.27;11.32;;;435.90;2355.20;;;;;;5069078;28;20476;-70
2023/06/16 09:42:12;;;;;;;14.48;10.75;;;435.80;2355.20;;;;;;5068925;28;20089;-67
2023/06/16 09:44:42;;;;;;;18.92;14.27;;;435.90;2355.20;;;;;;5068692;28;20024;-72
2023/06/16 09:47:12;;;;;;;11.30;9.95;;;435.90;2355.20;;;;;;5068747;28;20185;-75
2023/06/16 09:49:37;;;;;;;10.88;8.50;;;435.90;2355.20;;;;;;5068701;28;20031;-67
2023/06/16 09:52:03;;;;;;;12.93;10.50;;;435.90;2355.20;;;;;;5068065;28;20036;-71
2023/06/16 09:54:29;;;;;;;12.02;9.95;;;436.00;2355.20;;;;;;5068043;28;20161;-70
2023/06/16 09:56:56;;;;;;;12.35;10.82;;;436.00;2355.20;;;;;;5068770;28;20119;-66
2023/06/16 09:59:23;;;;;;;11.23;9.48;;;436.10;2355.20;;;;;;5068627;28;20471;-67
2023/06/16 10:01:52;;;;;;;13.40;10.40;;;460.80;2380.80;;;;;;5068499;28;20497;-65
2023/06/16 10:04:18;;;;;;;14.02;9.88;;;460.80;2380.80;;;;;;5068429;28;20036;-66
2023/06/16 10:06:57;;;;;;;11.80;10.60;;;460.80;2380.80;;;;;;5067902;28;20095;-68
2023/06/16 10:09:32;;;;;;;10.98;9.70;;;461.60;2380.80;;;;;;5068641;28;20096;-65
2023/06/16 10:11:58;;;;;;;11.65;9.90;;;460.80;2380.80;;;;;;5068046;28;20178;-66
2023/06/16 10:14:29;;;;;;;13.63;11.20;;;460.90;2380.80;;;;;;5068205;28;20052;-65
2023/06/16 10:16:56;;;;;;;13.32;10.18;;;461.00;2380.80;;;;;;5068183;28;20028;-67
2023/06/16 10:19:23;;;;;;;17.05;12.55;;;461.00;2380.80;;;;;;5067876;28;20017;-67
2023/06/16 10:21:53;;;;;;;10.88;9.20;;;461.20;2380.80;;;;;;5067800;28;20474;-65
2023/06/16 10:24:20;;;;;;;11.38;9.20;;;461.10;2380.80;;;;;;5068047;28;20071;-65
2023/06/16 10:26:46;;;;;;;11.43;8.80;;;461.00;2380.80;;;;;;5068187;28;20066;-66
2023/06/16 10:29:16;;;;;;;11.63;9.02;;;460.90;2380.80;;;;;;5068310;28;20025;-68
2023/06/16 10:31:44;;;;;;;12.90;10.43;;;460.80;2380.80;;;;;;5068206;28;20040;-73
2023/06/16 10:34:23;;;;;;;12.70;9.27;;;436.10;2355.20;;;;;;5067146;28;20115;-66
2023/06/16 10:36:54;;;;;;;11.30;9.85;;;435.90;2355.20;;;;;;5067654;28;20051;-73
2023/06/16 10:39:20;;;;;;;13.70;10.27;;;436.00;2355.20;;;;;;5068180;28;20108;-70
2023/06/16 10:41:50;;;;;;;14.25;11.10;;;436.00;2355.20;;;;;;5067926;28;20450;-66
2023/06/16 10:44:32;;;;;;;9.55;8.55;;;435.90;2355.20;;;;;;5067630;28;20024;-67
2023/06/16 10:47:12;;;;;;;15.13;10.43;;;435.90;2355.20;;;;;;5067428;28;20031;-72
2023/06/16 10:50:02;;;;;;;12.25;10.82;;;436.00;2355.20;;;;;;5055462;28;20056;-68
2023/06/16 10:52:28;;;;;;;13.48;10.13;;;460.80;2380.80;;;;;;4985814;28;20092;-64
2023/06/16 10:54:55;;;;;;;14.32;11.00;;;460.80;2380.80;;;;;;4985658;28;20035;-64
2023/06/16 10:57:22;;;;;;;14.00;10.50;;;460.80;2380.80;;;;;;4986070;28;20047;-65
2023/06/16 11:00:07;;;;;;;13.07;10.68;;;460.80;2380.80;;;;;;4985272;28;20030;-67
2023/06/16 11:02:35;;;;;;;13.98;10.30;;;460.90;2380.80;;;;;;4985763;28;20046;-64
2023/06/16 11:05:09;;;;;;;11.20;9.98;;;460.90;2380.80;;;;;;4985146;28;20026;-65
2023/06/16 11:07:42;;;;;;;12.68;10.05;;;460.80;2380.80;;;;;;4985594;28;20548;-64
2023/06/16 11:10:10;;;;;;;13.13;10.50;;;461.60;2380.80;;;;;;4982012;28;20088;-63
2023/06/16 11:12:40;;;;;;;13.35;10.77;;;460.90;2380.80;;;;;;4984740;28;20030;-72
2023/06/16 11:15:07;;;;;;;12.60;10.95;;;461.00;2380.80;;;;;;4985244;28;20480;-66
2023/06/16 11:17:33;;;;;;;12.48;10.07;;;461.10;2380.80;;;;;;4984414;28;20548;-65
2023/06/16 11:20:01;;;;;;;12.68;10.48;;;461.10;2380.80;;;;;;4985590;28;20038;-68
2023/06/16 11:22:30;;;;;;;15.10;10.18;;;;;;;;;;4984180;28;20041;-67
2023/06/16 11:24:57;;;;;;;13.60;11.30;;;461.40;2380.80;;;;;;4983602;28;20027;-64
2023/06/16 11:27:25;;;;;;;13.07;10.25;;;461.60;2380.80;;;;;;4985133;28;20106;-65
2023/06/16 11:29:53;;;;;;;13.30;10.65;;;461.60;2380.80;;;;;;5029484;28;20441;-69
2023/06/16 11:32:26;;;;;;;13.98;11.13;;;461.60;2380.80;;;;;;5067735;28;20112;-63
2023/06/16 11:34:55;;;;;;;11.93;9.88;;;461.70;2380.80;;;;;;5053120;28;20111;-64
2023/06/16 11:37:21;;;;;;;14.13;11.70;;;486.40;2380.80;;;;;;5066823;28;20143;-62
2023/06/16 11:39:47;;;;;;;14.75;12.55;;;461.70;2380.80;;;;;;5047140;28;20029;-62
2023/06/16 11:42:14;;;;;;;17.42;11.80;;;486.40;2380.80;;;;;;5059913;28;20035;-65
2023/06/16 11:44:40;;;;;;;13.73;12.32;;;486.40;2380.80;;;;;;5067416;28;20013;-64
2023/06/16 11:47:06;;;;;;;18.05;12.93;;;486.40;2380.80;;;;;;5060758;28;20479;-65
2023/06/16 11:49:36;;;;;;;13.57;10.32;;;;;;;;;;5059881;28;20115;-64
2023/06/16 11:52:04;;;;;;;12.05;10.80;;;;;;;;;;5060702;28;20033;-64
2023/06/16 11:54:30;;;;;;;17.20;12.45;;;486.50;2380.80;;;;;;5046775;28;20112;-63
2023/06/16 11:57:00;;;;;;;12.98;11.65;;;486.80;2380.80;;;;;;5047947;28;20124;-63
2023/06/16 11:59:30;;;;;;;13.18;11.88;;;487.10;2380.80;;;;;;5067173;28;20024;-62
2023/06/16 12:02:03;;;;;;;17.30;13.65;;;487.10;2380.80;;;;;;5066857;28;20036;-63
2023/06/16 12:04:31;;;;;;;15.17;12.70;;;487.10;2380.80;;;;;;5066841;28;20355;-64
2023/06/16 12:06:57;;;;;;;14.77;12.90;;;487.10;2380.80;;;;;;5066661;28;20498;-66
2023/06/16 12:09:35;;;;;;;17.50;13.40;;;487.10;2380.80;;;;;;5066911;28;20451;-69
2023/06/16 12:12:05;;;;;;;18.38;14.00;;;487.20;2380.80;;;;;;5066770;28;20033;-66
2023/06/16 12:14:35;;;;;;;14.35;12.95;;;487.10;2380.80;;;;;;5067040;28;20589;-62
2023/06/16 12:17:02;;;;;;;14.95;13.05;;;487.10;2380.80;;;;;;5070024;28;20124;-63
2023/06/16 12:19:28;;;;;;;14.07;12.57;;;487.00;2380.80;;;;;;5070593;28;20451;-72
2023/06/16 12:22:03;;;;;;;14.85;13.02;;;486.90;2380.80;;;;;;5069990;28;20024;-71